Time;durP1;ratioP1;P1;durP2;ratioP2;P2;SDS_P1;SDS_P2;PMS_P1;PMS_P2;Temp;Humidity;BMP_temperature;BMP_pressure;BME280_temperature;BME280_humidity;BME280_pressure;Samples;Min_cycle;Max_cycle;Signal;HPM_P1;HPM_P2
2022/10/11 02:46:29;;;;;;;3.97;1.30;;;12.60;99.90;;;;;;5829495;23;89229;-72
2022/10/11 02:48:58;;;;;;;6.20;1.17;;;12.70;99.90;;;;;;4917077;28;87906;-72
2022/10/11 02:51:26;;;;;;;6.00;1.20;;;12.60;99.90;;;;;;4919058;28;86415;-72
2022/10/11 02:53:52;;;;;;;8.80;1.40;;;12.50;99.90;;;;;;4915619;28;86200;-72
2022/10/11 02:56:18;;;;;;;11.50;1.45;;;12.40;99.90;;;;;;4920050;28;87691;-72
2022/10/11 02:58:43;;;;;;;3.20;0.95;;;12.30;99.90;;;;;;4930501;28;87862;-72
2022/10/11 03:01:09;;;;;;;7.18;1.23;;;12.30;99.90;;;;;;4918002;28;86347;-72
2022/10/11 03:03:35;;;;;;;4.10;1.30;;;12.40;99.90;;;;;;4920647;28;86933;-72
2022/10/11 03:06:02;;;;;;;6.25;1.00;;;12.40;99.90;;;;;;4928754;28;87176;-72
2022/10/11 03:08:28;;;;;;;5.70;1.10;;;12.60;99.90;;;;;;4909579;28;88126;-72
2022/10/11 03:10:54;;;;;;;7.55;1.50;;;12.70;99.90;;;;;;4928778;28;87018;-72
2022/10/11 03:13:20;;;;;;;4.65;1.00;;;12.70;99.90;;;;;;4920781;28;86245;-72
2022/10/11 03:15:53;;;;;;;3.10;0.80;;;12.80;99.90;;;;;;4915824;28;87189;-72
2022/10/11 03:18:19;;;;;;;5.35;1.02;;;12.70;99.90;;;;;;4915281;28;86642;-72
2022/10/11 03:20:45;;;;;;;3.97;0.98;;;12.80;99.90;;;;;;4919456;28;88054;-72
2022/10/11 03:23:11;;;;;;;6.13;1.00;;;12.80;99.90;;;;;;4929287;28;86833;-72
2022/10/11 03:25:37;;;;;;;3.13;0.68;;;12.80;99.90;;;;;;4938114;28;87710;-70
2022/10/11 03:28:03;;;;;;;7.90;1.30;;;12.70;99.90;;;;;;4937981;28;86834;-71
2022/10/11 03:30:28;;;;;;;2.58;0.70;;;12.70;99.90;;;;;;4925703;28;86647;-71
2022/10/11 03:32:54;;;;;;;3.45;1.02;;;12.60;99.90;;;;;;4917415;28;86570;-71
2022/10/11 03:35:20;;;;;;;3.42;0.90;;;12.60;99.90;;;;;;4916977;28;87697;-72
2022/10/11 03:37:45;;;;;;;2.70;0.60;;;12.60;99.90;;;;;;4927891;28;87029;-72
2022/10/11 03:40:12;;;;;;;6.25;1.10;;;12.60;99.90;;;;;;4930389;28;86672;-72
2022/10/11 03:42:38;;;;;;;4.95;0.90;;;12.60;99.90;;;;;;4906104;28;87788;-72
2022/10/11 03:45:07;;;;;;;4.65;1.27;;;12.60;99.90;;;;;;4901744;28;88101;-73
2022/10/11 03:47:34;;;;;;;5.63;0.80;;;12.60;99.90;;;;;;4897741;28;87882;-72
2022/10/11 03:50:00;;;;;;;7.18;0.90;;;12.60;99.90;;;;;;4897528;28;87127;-75
2022/10/11 03:52:25;;;;;;;5.88;1.15;;;12.70;99.90;;;;;;4900319;28;86928;-73
2022/10/11 03:54:51;;;;;;;2.58;1.05;;;12.70;99.90;;;;;;4901159;28;87178;-73
2022/10/11 03:57:17;;;;;;;3.50;1.00;;;12.70;99.90;;;;;;4904925;28;87144;-73
2022/10/11 03:59:43;;;;;;;9.43;1.50;;;12.60;99.90;;;;;;4900704;28;86469;-72
2022/10/11 04:02:09;;;;;;;4.18;1.25;;;12.70;99.90;;;;;;4892927;28;88273;-72
2022/10/11 04:04:34;;;;;;;4.80;0.90;;;12.70;99.90;;;;;;4899164;28;87172;-72
2022/10/11 04:07:00;;;;;;;3.92;0.90;;;12.70;99.90;;;;;;4899568;28;86901;-72
2022/10/11 04:09:26;;;;;;;4.07;1.20;;;12.70;99.90;;;;;;4910139;28;87257;-73
2022/10/11 04:11:51;;;;;;;4.50;1.20;;;12.60;99.90;;;;;;4899333;28;87030;-72
2022/10/11 04:14:17;;;;;;;5.97;1.00;;;12.50;99.90;;;;;;4900193;28;87220;-72
2022/10/11 04:16:42;;;;;;;4.63;1.40;;;12.40;99.90;;;;;;4901227;28;87398;-72
2022/10/11 04:19:08;;;;;;;3.72;1.10;;;12.40;99.90;;;;;;4905836;28;86340;-72
2022/10/11 04:21:34;;;;;;;3.90;1.00;;;12.30;99.90;;;;;;4889647;28;86989;-72
2022/10/11 04:23:59;;;;;;;5.72;1.20;;;12.30;99.90;;;;;;4903088;28;87080;-72
2022/10/11 04:26:25;;;;;;;6.93;1.42;;;12.40;99.90;;;;;;4897429;28;86397;-72
2022/10/11 04:28:51;;;;;;;2.58;1.08;;;12.50;99.90;;;;;;4900466;28;87450;-72
2022/10/11 04:31:16;;;;;;;4.63;1.52;;;12.50;99.90;;;;;;4906238;28;86772;-72
2022/10/11 04:33:42;;;;;;;4.30;1.60;;;12.60;99.90;;;;;;4915753;28;88033;-73
2022/10/11 04:36:08;;;;;;;3.65;1.40;;;12.30;99.90;;;;;;4902994;28;87937;-72
2022/10/11 04:38:33;;;;;;;11.00;1.77;;;12.20;99.90;;;;;;4904782;28;86970;-72
2022/10/11 04:41:12;;;;;;;4.43;1.40;;;12.20;99.90;;;;;;4899152;28;86581;-72
2022/10/11 04:43:37;;;;;;;6.72;2.20;;;12.30;99.90;;;;;;4889878;28;87014;-72
2022/10/11 04:46:04;;;;;;;6.22;1.90;;;12.30;99.90;;;;;;4903153;28;87107;-72
2022/10/11 04:48:30;;;;;;;4.38;1.38;;;12.40;99.90;;;;;;4897061;28;86561;-72
2022/10/11 04:50:56;;;;;;;5.22;1.70;;;12.40;99.90;;;;;;4893515;28;85651;-74
2022/10/11 04:53:22;;;;;;;5.13;1.52;;;12.40;99.90;;;;;;4895193;28;86946;-72
2022/10/11 04:56:03;;;;;;;5.72;1.70;;;12.40;99.90;;;;;;4899512;28;87462;-73
2022/10/11 04:58:30;;;;;;;4.65;1.80;;;12.40;99.90;;;;;;4896004;28;88894;-75
2022/10/11 05:00:56;;;;;;;7.22;1.60;;;12.50;99.90;;;;;;4901089;28;86465;-73
2022/10/11 05:03:23;;;;;;;6.70;1.67;;;12.50;99.90;;;;;;4890115;28;87201;-74
2022/10/11 05:05:49;;;;;;;8.25;1.52;;;12.50;99.90;;;;;;4886239;28;88602;-74
2022/10/11 05:08:15;;;;;;;7.60;1.60;;;12.50;99.90;;;;;;4890696;28;86416;-75
2022/10/11 05:10:40;;;;;;;7.60;1.27;;;12.50;99.90;;;;;;4890301;28;86752;-74
2022/10/11 05:13:06;;;;;;;4.85;1.05;;;12.40;99.90;;;;;;4892283;28;87760;-74
2022/10/11 05:15:32;;;;;;;4.28;1.42;;;12.30;99.90;;;;;;4893776;28;87288;-74
2022/10/11 05:17:58;;;;;;;7.20;1.80;;;12.40;99.90;;;;;;4893571;28;86722;-74
2022/10/11 05:20:24;;;;;;;4.22;1.67;;;12.30;99.90;;;;;;4892349;28;86944;-74
2022/10/11 05:22:49;;;;;;;4.68;1.50;;;12.20;99.90;;;;;;4888219;28;88917;-73
2022/10/11 05:25:15;;;;;;;3.90;1.40;;;12.10;99.90;;;;;;4889840;28;87152;-74
2022/10/11 05:27:41;;;;;;;5.78;1.70;;;12.00;99.90;;;;;;4894725;28;87345;-73
2022/10/11 05:30:07;;;;;;;6.03;1.58;;;12.00;99.90;;;;;;4891090;28;86958;-73
2022/10/11 05:32:32;;;;;;;5.88;1.52;;;12.00;99.90;;;;;;4897370;28;87111;-73
2022/10/11 05:34:58;;;;;;;4.82;1.60;;;12.10;99.90;;;;;;4896110;28;86936;-73
2022/10/11 05:37:24;;;;;;;5.05;1.25;;;12.10;99.90;;;;;;4901290;28;86615;-73
2022/10/11 05:39:50;;;;;;;6.40;1.30;;;12.10;99.90;;;;;;4899357;28;85412;-73
2022/10/11 05:42:15;;;;;;;3.85;1.50;;;12.20;99.90;;;;;;4897967;28;86593;-74
2022/10/11 05:44:41;;;;;;;3.35;1.10;;;12.10;99.90;;;;;;4898444;28;89193;-73
2022/10/11 05:47:07;;;;;;;4.07;1.50;;;12.20;99.90;;;;;;4898153;28;88117;-73
2022/10/11 05:49:32;;;;;;;6.30;1.60;;;12.30;99.90;;;;;;4898455;28;86929;-73
2022/10/11 05:51:58;;;;;;;5.45;1.60;;;12.30;99.90;;;;;;4898633;28;86432;-73
2022/10/11 05:54:23;;;;;;;6.57;1.35;;;12.40;99.90;;;;;;4898180;28;87047;-73
2022/10/11 05:56:49;;;;;;;5.10;1.50;;;12.50;99.90;;;;;;4897827;28;86377;-73
2022/10/11 05:59:15;;;;;;;4.10;1.42;;;12.50;99.90;;;;;;4897094;28;87076;-73
2022/10/11 06:01:40;;;;;;;4.38;1.08;;;12.50;99.90;;;;;;4898386;28;86563;-73
2022/10/11 06:04:07;;;;;;;5.93;1.40;;;12.60;99.90;;;;;;4898834;28;86125;-73
2022/10/11 06:06:33;;;;;;;4.43;1.73;;;12.70;99.90;;;;;;4898975;28;86298;-73
2022/10/11 06:08:58;;;;;;;6.57;1.50;;;12.70;99.90;;;;;;4898967;28;86549;-74
2022/10/11 06:11:26;;;;;;;6.75;1.52;;;12.80;99.90;;;;;;4897861;28;87550;-74
2022/10/11 06:13:53;;;;;;;2.78;1.05;;;12.80;99.90;;;;;;4896826;28;87120;-74
2022/10/11 06:16:20;;;;;;;5.97;1.63;;;12.80;99.90;;;;;;4898487;28;86748;-73
2022/10/11 06:18:45;;;;;;;7.78;1.30;;;12.80;99.90;;;;;;4897919;28;86447;-73
2022/10/11 06:21:12;;;;;;;7.10;1.23;;;12.80;99.90;;;;;;4898223;28;86702;-73
2022/10/11 06:23:38;;;;;;;6.95;1.52;;;12.80;99.90;;;;;;4898433;28;86923;-73
2022/10/11 06:26:07;;;;;;;6.50;1.02;;;12.90;99.90;;;;;;4898654;28;86383;-73
2022/10/11 06:28:34;;;;;;;6.70;1.23;;;13.00;99.90;;;;;;4900717;28;86319;-73
2022/10/11 06:31:03;;;;;;;7.13;1.15;;;13.10;99.90;;;;;;4898938;28;86727;-73
2022/10/11 06:33:29;;;;;;;4.22;1.30;;;13.20;99.90;;;;;;4894069;28;86896;-73
2022/10/11 06:35:59;;;;;;;2.85;0.90;;;13.20;99.90;;;;;;4901309;28;87195;-73
2022/10/11 06:38:25;;;;;;;5.07;1.10;;;13.30;99.90;;;;;;4901659;28;86400;-73
2022/10/11 06:40:51;;;;;;;5.82;1.60;;;13.40;99.90;;;;;;4901316;28;87493;-73
2022/10/11 06:43:17;;;;;;;15.05;1.65;;;13.50;99.90;;;;;;4901250;28;86799;-73
2022/10/11 06:45:43;;;;;;;3.47;1.50;;;13.50;99.90;;;;;;4901548;28;86532;-74
2022/10/11 06:48:08;;;;;;;9.40;1.25;;;13.60;99.90;;;;;;4901524;28;86813;-73
2022/10/11 06:50:35;;;;;;;9.30;1.45;;;13.70;99.90;;;;;;4900952;28;87007;-73
2022/10/11 06:53:01;;;;;;;7.65;1.50;;;13.80;99.90;;;;;;4900383;28;87002;-73
2022/10/11 06:55:27;;;;;;;3.67;1.42;;;13.70;99.90;;;;;;4901102;28;86415;-73
2022/10/11 06:57:52;;;;;;;8.30;1.33;;;13.50;99.90;;;;;;4901002;28;86989;-73
2022/10/11 07:00:18;;;;;;;7.38;1.30;;;13.60;99.90;;;;;;4900639;28;87968;-73
2022/10/11 07:02:44;;;;;;;6.05;1.23;;;13.80;99.90;;;;;;4900849;28;87130;-73
2022/10/11 07:05:09;;;;;;;5.47;1.30;;;13.90;99.90;;;;;;4900945;28;86351;-73
2022/10/11 07:07:35;;;;;;;9.45;1.67;;;14.00;99.90;;;;;;4901161;28;86311;-74
2022/10/11 07:10:01;;;;;;;8.80;1.63;;;14.10;99.90;;;;;;4900800;28;87332;-73
2022/10/11 07:12:27;;;;;;;7.95;1.60;;;14.00;99.90;;;;;;4899234;28;87008;-73
2022/10/11 07:14:53;;;;;;;7.00;1.80;;;14.00;99.90;;;;;;4900864;28;86363;-73
2022/10/11 07:17:19;;;;;;;6.82;1.80;;;13.90;99.90;;;;;;4901042;28;86039;-73
2022/10/11 07:19:46;;;;;;;4.78;2.03;;;14.00;99.90;;;;;;4900803;28;87225;-73
2022/10/11 07:22:11;;;;;;;9.52;1.83;;;14.00;99.90;;;;;;4901146;28;86527;-73
2022/10/11 07:24:37;;;;;;;9.73;2.03;;;14.00;99.90;;;;;;4900313;28;87585;-73
2022/10/11 07:27:03;;;;;;;11.52;2.33;;;13.90;99.90;;;;;;4900762;28;87395;-73
2022/10/11 07:29:29;;;;;;;4.85;1.88;;;13.90;99.90;;;;;;4900857;28;86860;-73
2022/10/11 07:31:54;;;;;;;7.78;1.67;;;13.90;99.90;;;;;;4891332;28;87334;-73
2022/10/11 07:34:21;;;;;;;8.43;1.80;;;13.90;99.90;;;;;;4899425;28;86420;-73
2022/10/11 07:36:47;;;;;;;9.65;2.15;;;13.80;99.90;;;;;;4900533;28;86946;-73
2022/10/11 07:39:14;;;;;;;7.47;1.88;;;13.60;99.90;;;;;;4899387;28;87084;-73
2022/10/11 07:41:40;;;;;;;8.70;1.70;;;13.80;99.90;;;;;;4900433;28;86124;-74
2022/10/11 07:44:05;;;;;;;8.25;1.70;;;14.00;99.90;;;;;;4900604;28;86661;-73
2022/10/11 07:46:31;;;;;;;4.60;1.58;;;14.20;99.90;;;;;;4897874;28;86897;-73
2022/10/11 07:48:57;;;;;;;2.75;1.30;;;14.60;99.90;;;;;;4899325;28;88207;-74
2022/10/11 07:51:24;;;;;;;5.93;1.65;;;14.90;99.90;;;;;;4900085;28;87058;-73
2022/10/11 07:53:55;;;;;;;5.03;1.40;;;15.20;99.90;;;;;;4900340;28;86916;-73
2022/10/11 07:56:42;;;;;;;15.35;2.50;;;15.30;99.90;;;;;;4898720;28;86302;-74
2022/10/11 07:59:09;;;;;;;5.45;1.92;;;15.20;99.90;;;;;;4899974;28;87067;-75
2022/10/11 08:01:34;;;;;;;6.43;1.88;;;15.50;99.90;;;;;;4900271;28;86303;-74
2022/10/11 08:04:00;;;;;;;8.05;1.95;;;16.10;99.90;;;;;;4900471;28;86361;-74
2022/10/11 08:06:30;;;;;;;8.18;1.90;;;16.50;99.90;;;;;;4900567;28;85579;-74
2022/10/11 08:08:57;;;;;;;9.63;2.22;;;16.90;97.00;;;;;;4900683;28;86950;-75
2022/10/11 08:11:26;;;;;;;11.68;2.35;;;17.10;96.10;;;;;;4899533;28;86958;-73
2022/10/11 08:13:52;;;;;;;4.88;1.50;;;17.40;93.90;;;;;;4898977;28;88977;-73
2022/10/11 08:16:18;;;;;;;6.28;1.50;;;17.60;94.40;;;;;;4899312;28;86433;-75
2022/10/11 08:18:43;;;;;;;7.72;1.58;;;17.50;94.30;;;;;;4900034;28;86516;-75
2022/10/11 08:21:12;;;;;;;6.80;1.10;;;17.10;92.20;;;;;;4899563;28;86976;-75
2022/10/11 08:23:37;;;;;;;6.50;0.95;;;17.50;93.40;;;;;;4899755;28;86599;-75
2022/10/11 08:26:03;;;;;;;3.35;1.02;;;18.00;91.00;;;;;;4899720;28;86680;-75
2022/10/11 08:28:29;;;;;;;4.95;1.05;;;18.40;88.10;;;;;;4899500;28;86622;-72
2022/10/11 08:30:55;;;;;;;14.48;1.50;;;19.20;87.00;;;;;;4898751;28;86210;-75
2022/10/11 08:33:22;;;;;;;6.30;1.80;;;19.80;86.50;;;;;;4900403;28;86446;-76
2022/10/11 08:35:50;;;;;;;5.63;1.45;;;21.70;83.80;;;;;;4899458;28;86935;-76
2022/10/11 08:38:16;;;;;;;7.72;1.63;;;24.80;77.50;;;;;;4890822;28;88179;-76
2022/10/11 08:40:55;;;;;;;6.05;2.15;;;27.10;65.70;;;;;;4899246;28;87852;-76
2022/10/11 08:43:30;;;;;;;8.00;2.20;;;27.50;63.00;;;;;;4899537;28;86452;-75
2022/10/11 08:45:58;;;;;;;5.05;2.38;;;28.30;59.00;;;;;;4897127;28;86999;-76
2022/10/11 08:48:44;;;;;;;4.30;2.05;;;29.30;54.70;;;;;;4896953;28;87321;-74
2022/10/11 08:51:21;;;;;;;8.80;2.00;;;30.60;54.30;;;;;;4890016;28;86930;-74
2022/10/11 08:53:56;;;;;;;8.20;2.55;;;32.10;53.00;;;;;;4899875;28;86338;-74
2022/10/11 08:56:24;;;;;;;8.65;2.50;;;33.70;47.40;;;;;;4897904;28;86285;-74
2022/10/11 08:59:02;;;;;;;4.90;2.92;;;34.70;43.80;;;;;;4899001;28;86841;-75
2022/10/11 09:01:30;;;;;;;8.98;3.17;;;35.60;44.90;;;;;;4899601;28;87917;-74
2022/10/11 09:03:58;;;;;;;7.03;2.78;;;36.60;40.60;;;;;;4896584;28;88408;-74
2022/10/11 09:06:36;;;;;;;;;;;36.80;40.80;;;;;;4899209;28;87110;-72
2022/10/11 09:09:23;;;;;;;9.55;2.80;;;36.60;39.30;;;;;;4898777;28;87612;-74
2022/10/11 09:11:55;;;;;;;7.53;2.35;;;35.90;38.60;;;;;;4891593;28;87497;-74
2022/10/11 09:14:47;;;;;;;3.40;2.03;;;35.80;39.60;;;;;;4898934;28;86812;-73
2022/10/11 09:17:22;;;;;;;6.43;2.35;;;36.30;39.50;;;;;;4902743;28;86316;-73
2022/10/11 09:20:28;;;;;;;4.20;1.98;;;36.60;39.00;;;;;;4897282;28;86755;-74
2022/10/11 09:23:04;;;;;;;5.82;3.03;;;36.80;37.30;;;;;;4897172;28;87008;-73
2022/10/11 09:25:46;;;;;;;5.53;2.20;;;37.60;36.70;;;;;;4898029;28;87003;-73
2022/10/11 09:28:21;;;;;;;4.75;1.95;;;37.80;35.20;;;;;;4899739;28;86299;-74
2022/10/11 09:30:50;;;;;;;3.25;2.22;;;37.50;36.10;;;;;;4899131;28;88972;-73
2022/10/11 09:33:31;;;;;;;7.57;2.60;;;37.10;37.20;;;;;;4896814;28;87933;-73
2022/10/11 09:35:58;;;;;;;5.18;3.10;;;37.00;37.20;;;;;;4897119;28;86784;-77
2022/10/11 09:38:48;;;;;;;4.07;2.08;;;37.20;36.90;;;;;;4898244;28;86714;-77
2022/10/11 09:41:17;;;;;;;3.85;2.53;;;37.90;37.90;;;;;;4894954;28;87525;-77
2022/10/11 09:43:51;;;;;;;7.63;2.67;;;39.20;36.60;;;;;;4900818;28;86789;-77
2022/10/11 09:46:44;;;;;;;7.72;2.53;;;40.40;35.00;;;;;;4897604;28;86884;-79
2022/10/11 09:49:17;;;;;;;5.47;1.98;;;39.90;34.40;;;;;;4894901;28;85811;-78
2022/10/11 09:51:51;;;;;;;5.03;2.38;;;39.70;34.80;;;;;;4900449;28;87290;-76
2022/10/11 09:54:19;;;;;;;6.40;2.65;;;38.60;35.20;;;;;;4894684;28;86701;-76
2022/10/11 09:56:45;;;;;;;6.35;2.78;;;39.00;34.10;;;;;;4894900;28;87912;-77
2022/10/11 09:59:26;;;;;;;5.43;2.28;;;37.50;35.80;;;;;;4900424;28;86596;-75
2022/10/11 10:02:12;;;;;;;5.68;1.85;;;34.90;37.50;;;;;;4900800;28;87257;-75
2022/10/11 10:05:10;;;;;;;5.25;1.65;;;32.60;40.70;;;;;;4887066;28;86378;-76
2022/10/11 10:07:39;;;;;;;6.05;3.10;;;31.10;42.90;;;;;;4901688;28;86390;-76
2022/10/11 10:10:29;;;;;;;6.38;1.50;;;30.40;43.90;;;;;;4903993;28;86932;-77
2022/10/11 10:13:00;;;;;;;5.72;1.52;;;29.20;45.70;;;;;;4902349;28;87719;-77
2022/10/11 10:15:30;;;;;;;3.33;1.30;;;28.60;46.30;;;;;;4907133;28;89695;-78
2022/10/11 10:17:57;;;;;;;5.10;1.83;;;28.00;48.40;;;;;;4904920;28;87044;-77
2022/10/11 10:20:27;;;;;;;5.35;1.45;;;27.60;48.30;;;;;;4900107;28;86709;-77
2022/10/11 10:22:53;;;;;;;4.10;1.58;;;26.90;50.90;;;;;;4900292;28;88576;-77
2022/10/11 10:25:31;;;;;;;4.85;1.85;;;26.20;52.10;;;;;;4901071;28;87804;-77
2022/10/11 10:28:15;;;;;;;4.05;1.42;;;25.60;53.80;;;;;;4901502;28;86840;-77
2022/10/11 10:30:58;;;;;;;4.93;1.58;;;24.90;55.40;;;;;;4899735;28;87193;-77
2022/10/11 10:33:29;;;;;;;4.28;1.48;;;24.10;57.70;;;;;;4896126;28;86795;-77
2022/10/11 10:36:07;;;;;;;6.88;1.77;;;23.60;58.50;;;;;;4897804;28;89468;-76
2022/10/11 10:38:39;;;;;;;6.00;1.70;;;23.50;59.40;;;;;;4899137;28;88332;-77
2022/10/11 10:41:10;;;;;;;6.53;1.52;;;23.40;60.80;;;;;;4902285;28;86327;-77
2022/10/11 10:43:38;;;;;;;3.85;1.55;;;23.20;61.40;;;;;;4900877;28;87281;-76
2022/10/11 10:46:26;;;;;;;8.40;1.40;;;23.10;62.90;;;;;;4890701;28;87416;-76
2022/10/11 10:49:11;;;;;;;4.03;1.55;;;22.80;62.80;;;;;;4896299;28;87875;-76
2022/10/11 10:52:04;;;;;;;4.32;1.63;;;23.10;63.60;;;;;;4898216;28;86594;-77
2022/10/11 10:54:58;;;;;;;6.15;1.20;;;22.90;64.30;;;;;;4901892;28;87252;-77
2022/10/11 10:57:53;;;;;;;6.05;1.75;;;22.70;63.30;;;;;;4894244;28;87238;-77
2022/10/11 11:00:21;;;;;;;5.57;1.92;;;22.80;62.80;;;;;;4895775;28;86863;-77
2022/10/11 11:02:53;;;;;;;6.60;1.60;;;22.50;63.80;;;;;;4898952;28;87879;-78
2022/10/11 11:05:30;;;;;;;5.95;1.65;;;22.50;63.90;;;;;;4893566;28;87095;-76
2022/10/11 11:08:01;;;;;;;5.43;1.02;;;22.60;63.90;;;;;;4899900;28;86471;-77
2022/10/11 11:10:39;;;;;;;6.05;1.20;;;22.70;65.10;;;;;;4899687;28;86667;-76
2022/10/11 11:13:19;;;;;;;6.10;1.20;;;22.80;64.90;;;;;;4897215;28;86786;-76
2022/10/11 11:16:23;;;;;;;4.10;1.42;;;22.60;66.10;;;;;;4898877;28;88327;-77
2022/10/11 11:18:52;;;;;;;5.18;1.83;;;22.30;67.40;;;;;;4902834;28;86922;-77
2022/10/11 11:21:35;;;;;;;6.82;1.73;;;22.10;68.10;;;;;;4901529;28;86802;-77
2022/10/11 11:24:32;;;;;;;4.38;1.50;;;22.10;67.20;;;;;;4899174;28;86745;-76
2022/10/11 11:27:11;;;;;;;5.82;1.33;;;21.90;66.60;;;;;;4892527;28;87343;-76
2022/10/11 11:29:55;;;;;;;5.00;1.50;;;22.00;67.80;;;;;;4901691;28;86973;-77
2022/10/11 11:32:48;;;;;;;8.77;1.52;;;21.90;67.50;;;;;;4899772;28;86807;-77
2022/10/11 11:35:36;;;;;;;6.82;1.48;;;21.70;67.70;;;;;;4893744;28;85980;-77
2022/10/11 11:38:29;;;;;;;7.40;1.30;;;21.90;66.70;;;;;;4899997;28;86617;-76
2022/10/11 11:41:04;;;;;;;5.90;1.70;;;22.00;66.50;;;;;;4898170;28;86958;-76
2022/10/11 11:43:53;;;;;;;4.32;1.35;;;21.70;71.00;;;;;;4899792;28;87241;-77
2022/10/11 11:46:31;;;;;;;6.07;2.17;;;21.40;70.90;;;;;;4899464;28;86785;-77
2022/10/11 11:49:01;;;;;;;5.93;1.25;;;21.30;73.10;;;;;;4899225;28;86820;-77
2022/10/11 11:51:36;;;;;;;9.38;1.35;;;21.20;71.40;;;;;;4899827;28;86998;-76
2022/10/11 11:54:05;;;;;;;5.75;1.42;;;21.10;72.80;;;;;;4899299;28;86347;-77
2022/10/11 11:56:52;;;;;;;8.27;1.73;;;21.10;72.50;;;;;;4900091;28;86556;-76
2022/10/11 11:59:36;;;;;;;6.85;1.83;;;21.10;71.50;;;;;;4898081;28;86612;-77
2022/10/11 12:02:30;;;;;;;6.80;1.65;;;21.00;72.40;;;;;;4901806;28;86113;-77
2022/10/11 12:04:56;;;;;;;11.38;1.73;;;21.10;72.80;;;;;;4900253;28;87079;-76
2022/10/11 12:07:24;;;;;;;6.10;1.85;;;21.10;73.30;;;;;;4903839;28;86887;-76
2022/10/11 12:10:14;;;;;;;5.45;2.35;;;21.00;73.30;;;;;;4898200;28;88295;-77
2022/10/11 12:12:40;;;;;;;6.90;2.00;;;21.00;72.60;;;;;;4899720;28;86961;-77
2022/10/11 12:15:08;;;;;;;10.18;1.80;;;20.80;73.80;;;;;;4902791;28;86689;-77
2022/10/11 12:17:55;;;;;;;7.10;1.73;;;20.70;76.20;;;;;;4900465;28;86392;-77
2022/10/11 12:20:23;;;;;;;6.22;1.73;;;20.60;77.30;;;;;;4899259;28;86633;-77
2022/10/11 12:22:52;;;;;;;5.18;1.85;;;20.50;76.30;;;;;;4899139;28;86496;-77
2022/10/11 12:25:20;;;;;;;6.97;1.65;;;20.50;74.50;;;;;;4899392;28;86709;-77
2022/10/11 12:27:58;;;;;;;7.55;1.88;;;20.50;76.10;;;;;;4899845;28;86164;-77
2022/10/11 12:30:49;;;;;;;12.68;2.03;;;20.50;77.40;;;;;;4904311;28;86750;-77
2022/10/11 12:33:22;;;;;;;5.45;1.60;;;20.40;76.90;;;;;;4899763;28;87016;-77
2022/10/11 12:35:54;;;;;;;7.15;1.73;;;20.30;76.20;;;;;;4899260;28;87268;-76
2022/10/11 12:38:28;;;;;;;9.45;2.80;;;20.40;77.10;;;;;;4898395;28;86605;-76
2022/10/11 12:41:07;;;;;;;6.78;1.52;;;20.50;77.00;;;;;;4903353;28;86829;-77
2022/10/11 12:43:54;;;;;;;9.98;1.77;;;20.40;77.20;;;;;;4895198;28;86241;-77
2022/10/11 12:46:29;;;;;;;7.72;1.73;;;20.50;76.60;;;;;;4898678;28;86680;-77
2022/10/11 12:49:19;;;;;;;5.38;1.25;;;20.60;76.50;;;;;;4898936;28;87961;-77
2022/10/11 12:52:18;;;;;;;5.78;1.65;;;20.50;75.60;;;;;;4900307;28;86931;-76
2022/10/11 12:55:10;;;;;;;9.20;1.60;;;20.50;74.90;;;;;;4892305;28;86680;-77
2022/10/11 12:58:05;;;;;;;9.18;1.90;;;20.60;75.60;;;;;;4867546;28;87095;-77
2022/10/11 13:00:39;;;;;;;9.35;1.80;;;20.50;75.20;;;;;;4899187;28;86310;-77
2022/10/11 13:03:40;;;;;;;7.15;1.75;;;20.40;75.50;;;;;;4902613;28;88554;-77
2022/10/11 13:06:17;;;;;;;9.48;1.88;;;20.10;75.80;;;;;;4893467;28;87799;-77
2022/10/11 13:08:48;;;;;;;5.80;1.23;;;20.20;76.70;;;;;;4898951;28;86444;-77
2022/10/11 13:11:30;;;;;;;8.80;1.65;;;20.50;75.80;;;;;;4899666;28;86597;-77
2022/10/11 13:14:07;;;;;;;8.38;1.75;;;20.50;76.30;;;;;;4899850;28;88291;-77
2022/10/11 13:16:48;;;;;;;10.13;2.42;;;20.70;75.40;;;;;;4901160;28;86773;-77
2022/10/11 13:19:15;;;;;;;9.32;1.80;;;20.50;75.70;;;;;;4893565;28;86730;-77
2022/10/11 13:21:41;;;;;;;7.45;1.80;;;20.40;76.40;;;;;;4899161;28;86399;-77
2022/10/11 13:24:13;;;;;;;7.78;1.85;;;20.30;76.90;;;;;;4897804;28;86820;-77
2022/10/11 13:26:40;;;;;;;8.65;1.63;;;20.20;77.10;;;;;;4898875;28;87062;-77
2022/10/11 13:29:38;;;;;;;10.52;2.25;;;20.20;77.50;;;;;;4898149;28;87833;-77
2022/10/11 13:32:16;;;;;;;8.77;1.80;;;20.10;77.80;;;;;;4899215;28;86373;-77
2022/10/11 13:34:46;;;;;;;7.28;1.55;;;20.10;77.80;;;;;;4898913;28;86614;-76
2022/10/11 13:37:18;;;;;;;11.25;2.15;;;20.20;77.90;;;;;;4900165;28;87102;-76
2022/10/11 13:39:45;;;;;;;8.43;2.05;;;20.20;76.90;;;;;;4905276;28;87044;-77
2022/10/11 13:42:14;;;;;;;9.48;2.08;;;20.10;77.80;;;;;;4890854;28;87526;-77
2022/10/11 13:44:41;;;;;;;6.85;1.85;;;20.10;78.50;;;;;;4902455;28;87849;-77
2022/10/11 13:47:14;;;;;;;9.90;1.80;;;20.00;78.00;;;;;;4898939;28;86076;-76
2022/10/11 13:49:45;;;;;;;7.97;1.98;;;20.20;77.60;;;;;;4898102;28;86374;-77
2022/10/11 13:52:17;;;;;;;9.65;2.65;;;20.10;77.90;;;;;;4911130;28;88618;-77
2022/10/11 13:54:52;;;;;;;8.38;2.30;;;20.10;78.30;;;;;;4901013;28;88231;-77
2022/10/11 13:57:19;;;;;;;7.28;1.55;;;20.10;78.10;;;;;;4902101;28;88007;-76
2022/10/11 13:59:45;;;;;;;10.18;1.73;;;20.00;77.80;;;;;;4901914;28;86506;-77
2022/10/11 14:02:22;;;;;;;10.73;2.13;;;20.30;77.00;;;;;;4902987;28;86963;-77
2022/10/11 14:04:48;;;;;;;12.80;2.90;;;20.10;77.70;;;;;;4901052;28;87263;-77
2022/10/11 14:07:28;;;;;;;9.35;2.75;;;20.20;77.40;;;;;;4901236;28;86972;-76
2022/10/11 14:09:54;;;;;;;9.75;2.00;;;20.00;77.70;;;;;;4902735;28;87301;-76
2022/10/11 14:12:39;;;;;;;9.43;2.67;;;19.90;78.40;;;;;;4906200;28;86436;-76
2022/10/11 14:15:40;;;;;;;6.30;1.70;;;20.00;77.90;;;;;;4897562;28;86413;-76
2022/10/11 14:18:34;;;;;;;10.15;2.22;;;20.00;77.60;;;;;;4901880;28;86879;-76
2022/10/11 14:21:18;;;;;;;15.25;2.72;;;19.70;79.20;;;;;;4896533;28;87472;-76
2022/10/11 14:23:54;;;;;;;11.55;1.67;;;19.60;80.40;;;;;;4896853;28;86645;-77
2022/10/11 14:26:21;;;;;;;11.27;2.22;;;19.60;79.70;;;;;;4904582;28;86563;-76
2022/10/11 14:28:58;;;;;;;9.52;2.85;;;19.60;80.50;;;;;;4902395;28;86598;-76
2022/10/11 14:31:25;;;;;;;8.68;2.05;;;19.30;80.30;;;;;;4901482;28;86382;-77
2022/10/11 14:33:51;;;;;;;12.05;2.70;;;19.40;80.60;;;;;;4901932;28;86603;-76
2022/10/11 14:36:17;;;;;;;6.22;1.70;;;19.50;80.80;;;;;;4907291;28;87937;-77
2022/10/11 14:38:42;;;;;;;11.73;2.20;;;19.60;79.80;;;;;;4906374;28;87023;-76
2022/10/11 14:41:08;;;;;;;7.57;2.22;;;19.60;79.60;;;;;;4898533;28;86328;-76
2022/10/11 14:43:34;;;;;;;6.30;2.22;;;19.60;79.50;;;;;;4896508;28;86853;-76
2022/10/11 14:45:59;;;;;;;8.13;2.25;;;19.60;79.40;;;;;;4902574;28;88013;-76
2022/10/11 14:48:25;;;;;;;9.48;1.50;;;19.60;79.50;;;;;;4897049;28;86952;-76
2022/10/11 14:50:58;;;;;;;6.45;2.03;;;19.50;79.70;;;;;;4900603;28;87481;-76
2022/10/11 14:53:24;;;;;;;9.98;1.98;;;19.30;81.00;;;;;;4893326;28;86254;-76
2022/10/11 14:55:50;;;;;;;6.43;2.03;;;19.40;80.40;;;;;;4901435;28;86689;-76
2022/10/11 14:58:16;;;;;;;7.60;2.03;;;19.40;80.30;;;;;;4900329;28;86931;-76
2022/10/11 15:00:43;;;;;;;10.57;2.13;;;19.30;80.70;;;;;;4904439;28;86748;-76
2022/10/11 15:03:09;;;;;;;7.57;1.92;;;19.30;80.30;;;;;;4900530;28;86125;-77
2022/10/11 15:05:35;;;;;;;9.65;2.20;;;19.30;80.60;;;;;;4906630;28;87377;-74
2022/10/11 15:08:03;;;;;;;9.57;1.77;;;19.20;81.10;;;;;;4897757;28;86916;-77
2022/10/11 15:10:34;;;;;;;9.02;1.95;;;19.10;81.60;;;;;;4900765;28;87259;-76
2022/10/11 15:13:00;;;;;;;12.52;2.25;;;18.90;82.20;;;;;;4895316;28;87226;-76
2022/10/11 15:15:29;;;;;;;7.43;1.75;;;19.10;82.20;;;;;;4898004;28;87340;-76
2022/10/11 15:17:57;;;;;;;11.55;1.90;;;19.10;81.50;;;;;;4898021;28;86334;-76
2022/10/11 15:20:27;;;;;;;7.63;1.60;;;19.10;81.10;;;;;;4898665;28;87124;-76
2022/10/11 15:22:54;;;;;;;11.38;2.67;;;19.10;81.00;;;;;;4901062;28;86694;-76
2022/10/11 15:25:20;;;;;;;8.32;1.85;;;19.10;81.40;;;;;;4898527;28;87102;-74
2022/10/11 15:27:47;;;;;;;10.10;1.70;;;19.20;80.80;;;;;;4905055;28;86650;-73
2022/10/11 15:30:16;;;;;;;8.50;1.83;;;19.30;80.60;;;;;;4899172;28;86192;-74
2022/10/11 15:32:42;;;;;;;10.38;1.70;;;19.20;80.10;;;;;;4896231;28;86486;-74
2022/10/11 15:35:08;;;;;;;9.07;1.42;;;19.10;80.20;;;;;;4902025;28;88697;-74
2022/10/11 15:37:34;;;;;;;8.27;2.35;;;19.10;80.00;;;;;;4884575;28;89645;-74
2022/10/11 15:39:59;;;;;;;11.60;1.73;;;19.10;80.30;;;;;;4898842;28;86272;-74
2022/10/11 15:42:26;;;;;;;7.38;1.58;;;19.00;80.80;;;;;;4897481;28;86664;-74
2022/10/11 15:44:51;;;;;;;9.35;1.85;;;18.80;80.70;;;;;;4903621;28;87297;-73
2022/10/11 15:47:17;;;;;;;12.30;2.60;;;18.70;82.00;;;;;;4897519;28;86287;-77
2022/10/11 15:49:43;;;;;;;8.93;1.48;;;18.50;82.60;;;;;;4899326;28;86276;-75
2022/10/11 15:52:09;;;;;;;10.77;1.50;;;18.50;82.30;;;;;;4898908;28;86010;-75